Terminal Aerodrome Forecast
Issued by NWS

Home | Current Version | Previous Version | Text Only | Print | Product List | Glossary On
Versions: 1 2 3 4 5 6 7 8 9 10 11 12 13 14 15 16 17 18 19 20
703
FTUS42 KFFC 201120
TAFPDK
TAF
KPDK 201120Z 2012/2112 21007KT P6SM SCT008 OVC015
      TEMPO 2012/2014 BKN008
     FM201400 22007KT P6SM SCT010 BKN025
     FM202000 22008KT P6SM SCT035 BKN250
     FM210300 20004KT P6SM SCT007 OVC025
     FM210600 19005KT P6SM VCSH BKN007 OVC015=

USA.gov is the U.S. government's official web portal to all federal, state and local government web resources and services.